Time;durP1;ratioP1;P1;durP2;ratioP2;P2;SDS_P1;SDS_P2;PMS_P1;PMS_P2;Temp;Humidity;BMP_temperature;BMP_pressure;BME280_temperature;BME280_humidity;BME280_pressure;Samples;Min_cycle;Max_cycle;Signal;HPM_P1;HPM_P2
2022/08/15 00:00:43;;;;;;;6.07;5.47;;;20.70;88.10;;;21.67;53.37;96921.31;5184665;28;20202;-74
2022/08/15 00:03:21;;;;;;;5.80;5.40;;;20.70;88.50;;;21.66;53.78;96929.97;5179507;28;20644;-76
2022/08/15 00:05:58;;;;;;;5.53;5.13;;;20.70;89.00;;;21.66;53.95;96917.88;5181434;28;20207;-75
2022/08/15 00:08:54;;;;;;;5.35;4.95;;;20.70;89.40;;;21.66;54.00;96919.56;5180263;28;20203;-76
2022/08/15 00:11:36;;;;;;;5.68;5.28;;;20.70;89.40;;;21.65;54.03;96912.66;5181801;28;20265;-76
2022/08/15 00:14:15;;;;;;;5.88;5.18;;;20.70;89.50;;;21.63;54.11;96916.97;5180437;28;20226;-76
2022/08/15 00:16:53;;;;;;;5.03;4.55;;;20.70;89.60;;;21.61;54.33;96914.41;5182823;28;20202;-76
2022/08/15 00:19:30;;;;;;;5.70;5.20;;;20.70;90.00;;;21.62;54.40;96915.25;5182126;28;20637;-76
2022/08/15 00:22:09;;;;;;;5.38;4.90;;;20.70;90.20;;;21.54;53.83;96916.13;5183731;28;20198;-75
2022/08/15 00:24:51;;;;;;;5.20;4.80;;;20.60;89.60;;;21.51;54.63;96910.06;5188565;28;20218;-76
2022/08/15 00:27:26;;;;;;;7.28;5.50;;;20.50;89.90;;;21.43;54.01;96915.25;5183292;28;20292;-76
2022/08/15 00:30:07;;;;;;;5.28;4.88;;;20.50;89.90;;;21.42;54.33;96920.47;5185634;28;20301;-76
2022/08/15 00:32:41;;;;;;;4.95;4.63;;;20.50;90.00;;;21.41;54.69;96930.03;5185537;28;20206;-74
2022/08/15 00:35:39;;;;;;;5.65;5.15;;;20.50;90.30;;;21.42;54.95;96916.16;5184722;28;20222;-76
2022/08/15 00:38:16;;;;;;;6.97;6.38;;;20.50;90.50;;;21.39;55.28;96921.34;5181931;28;20213;-75
2022/08/15 00:43:59;;;;;;;5.85;5.45;;;20.50;90.70;;;21.45;55.49;96925.69;5182356;28;20261;-76
2022/08/15 00:46:32;;;;;;;5.40;5.00;;;20.50;90.80;;;21.43;55.85;96927.41;5186814;28;20222;-76
2022/08/15 00:49:07;;;;;;;5.32;4.82;;;20.50;91.00;;;21.39;55.95;96931.75;5183428;28;20203;-76
2022/08/15 00:51:50;;;;;;;5.38;4.97;;;20.40;91.20;;;21.40;55.97;96923.06;5187578;28;20554;-76
2022/08/15 00:54:41;;;;;;;5.15;4.78;;;20.40;91.40;;;21.36;55.75;96919.63;5186217;28;20219;-75
2022/08/15 00:57:35;;;;;;;5.55;5.15;;;20.40;91.40;;;21.38;56.31;96924.84;5184276;28;20238;-76
2022/08/15 01:00:33;;;;;;;5.75;5.35;;;20.50;91.60;;;21.42;56.24;96921.34;5185501;28;20302;-75
2022/08/15 01:03:14;;;;;;;5.70;5.20;;;20.50;91.50;;;21.42;56.13;96921.34;5179242;28;20213;-75
2022/08/15 01:05:53;;;;;;;5.22;4.93;;;20.40;91.80;;;21.39;56.46;96920.50;5183184;28;20234;-76
2022/08/15 01:08:29;;;;;;;5.32;4.82;;;20.40;91.80;;;21.33;56.67;96922.19;5180506;28;20273;-76
2022/08/15 01:11:19;;;;;;;5.07;4.70;;;20.40;92.30;;;21.34;57.02;96920.44;5182385;28;20669;-77
2022/08/15 01:13:59;;;;;;;5.30;5.00;;;20.40;92.60;;;21.32;57.45;96922.22;5179810;28;20233;-75
2022/08/15 01:16:39;;;;;;;5.65;5.15;;;20.40;92.70;;;21.31;57.77;96917.84;5185820;28;20608;-76
2022/08/15 01:19:22;;;;;;;5.25;4.95;;;20.40;93.00;;;21.33;57.91;96916.13;5180332;28;20226;-76
2022/08/15 01:22:21;;;;;;;5.63;5.13;;;20.50;93.10;;;21.36;58.00;96921.31;5184666;28;20223;-76
2022/08/15 01:25:00;;;;;;;5.75;5.35;;;20.40;93.00;;;21.33;58.24;96931.72;5188328;28;20226;-75
2022/08/15 01:27:59;;;;;;;6.10;5.70;;;20.40;93.40;;;21.26;58.77;96942.97;5187404;28;20202;-76
2022/08/15 01:30:42;;;;;;;5.65;5.25;;;20.20;94.00;;;21.24;59.25;96948.19;5185556;28;20726;-76
2022/08/15 01:33:41;;;;;;;6.43;5.93;;;20.20;94.40;;;21.15;59.74;96938.66;5182898;28;20230;-76
2022/08/15 01:36:16;;;;;;;6.07;5.68;;;20.20;94.90;;;21.15;60.03;96938.66;5179978;28;20879;-76
2022/08/15 01:39:12;;;;;;;6.28;5.80;;;20.20;94.90;;;21.21;59.57;96932.59;5180333;28;20202;-75
2022/08/15 01:42:00;;;;;;;5.97;5.47;;;20.30;94.50;;;21.19;59.50;96941.25;5178784;28;20198;-75
2022/08/15 01:44:39;;;;;;;6.45;5.95;;;20.30;94.60;;;21.19;59.70;96939.53;5179726;28;20251;-76
2022/08/15 01:47:36;;;;;;;5.25;4.95;;;20.30;94.80;;;21.21;59.65;96940.41;5177982;28;20202;-76
2022/08/15 01:50:17;;;;;;;6.32;5.93;;;20.30;94.80;;;21.25;60.04;96934.31;5182300;28;20261;-74
2022/08/15 01:53:10;;;;;;;5.63;5.22;;;20.30;95.00;;;21.27;59.71;96934.34;5185290;28;20214;-76
2022/08/15 01:55:54;;;;;;;5.85;5.32;;;20.30;94.80;;;21.30;60.08;96934.31;5182104;28;20333;-76
2022/08/15 01:58:30;;;;;;;6.32;5.85;;;20.40;94.90;;;21.34;59.52;96938.66;5180226;28;20202;-76
2022/08/15 02:01:08;;;;;;;6.00;5.60;;;20.40;95.00;;;21.31;60.17;96941.25;5181294;28;20633;-76
2022/08/15 02:03:46;;;;;;;5.88;5.47;;;20.40;95.10;;;21.34;60.34;96936.03;5177289;28;20810;-75
2022/08/15 02:06:27;;;;;;;5.53;5.22;;;20.50;95.30;;;21.39;60.12;96947.34;5179044;28;20242;-76
2022/08/15 02:09:12;;;;;;;5.70;5.30;;;20.50;95.40;;;21.44;60.37;96940.41;5180606;28;20203;-76
2022/08/15 02:12:08;;;;;;;6.60;6.10;;;20.60;95.30;;;21.41;60.82;96943.03;5181167;28;20207;-76
2022/08/15 02:15:13;;;;;;;5.78;5.38;;;20.60;95.70;;;21.50;60.66;96948.22;5180233;28;20226;-78
2022/08/15 02:17:48;;;;;;;5.43;5.00;;;20.70;95.40;;;21.54;60.53;96952.53;5180839;28;20213;-76
2022/08/15 02:20:23;;;;;;;5.63;5.13;;;20.60;95.70;;;21.47;60.89;96952.56;5179793;28;20198;-76
2022/08/15 02:22:57;;;;;;;5.82;5.32;;;20.50;96.00;;;21.43;61.12;96950.81;5181112;28;20587;-76
2022/08/15 02:25:31;;;;;;;6.25;5.75;;;20.40;96.30;;;21.41;61.29;96950.81;5187258;28;20837;-77
2022/08/15 02:28:11;;;;;;;6.38;5.78;;;20.50;96.30;;;21.35;61.38;96951.66;5182897;28;20282;-76
2022/08/15 02:31:13;;;;;;;8.57;6.28;;;20.40;96.50;;;21.38;61.86;96953.44;5183762;28;20684;-74
2022/08/15 02:33:50;;;;;;;6.85;5.82;;;20.50;96.70;;;21.44;62.44;96953.41;5181582;28;20280;-75
2022/08/15 02:36:29;;;;;;;6.03;5.53;;;20.50;97.20;;;21.51;62.62;96959.47;5181585;28;20312;-76
2022/08/15 02:39:08;;;;;;;5.78;5.30;;;20.60;97.40;;;21.60;63.02;96959.47;5182586;28;20209;-76
2022/08/15 02:41:50;;;;;;;5.75;5.22;;;20.70;97.30;;;21.75;62.40;96956.00;5183405;28;20797;-76
2022/08/15 02:44:27;;;;;;;5.40;4.90;;;20.90;97.10;;;21.80;62.57;96954.22;5176440;28;20230;-76
2022/08/15 02:47:04;;;;;;;5.90;5.32;;;20.90;97.20;;;21.86;62.68;96953.34;5179542;28;20568;-75
2022/08/15 02:49:41;;;;;;;6.40;5.90;;;21.00;97.30;;;21.90;62.90;96948.16;5180659;28;20587;-75
2022/08/15 02:52:22;;;;;;;5.82;5.43;;;21.10;97.30;;;21.94;62.68;96947.25;5179295;28;20284;-75
2022/08/15 02:54:57;;;;;;;6.00;5.45;;;21.20;97.20;;;21.98;62.56;96949.00;5183343;28;20218;-76
2022/08/15 02:57:34;;;;;;;6.25;5.65;;;21.20;97.20;;;22.00;62.60;96948.97;5180228;28;20195;-76
2022/08/15 03:00:28;;;;;;;5.90;5.03;;;21.20;97.40;;;21.96;62.65;96948.13;5176688;28;20203;-76
2022/08/15 03:03:07;;;;;;;6.00;5.50;;;21.10;97.50;;;21.98;63.15;96954.22;5182375;28;20221;-76
2022/08/15 03:05:45;;;;;;;6.03;5.43;;;21.20;97.70;;;21.97;62.75;96951.59;5182356;28;20223;-75
2022/08/15 03:08:27;;;;;;;6.13;5.53;;;21.10;97.60;;;21.95;63.34;96953.34;5177703;28;20306;-76
2022/08/15 03:11:00;;;;;;;5.70;5.20;;;21.10;97.80;;;21.97;62.97;96956.81;5181711;28;20214;-76
2022/08/15 03:13:36;;;;;;;5.70;5.25;;;21.10;98.00;;;21.95;63.30;96954.22;5179697;28;20229;-74
2022/08/15 03:16:15;;;;;;;5.47;4.93;;;21.10;98.10;;;21.98;63.35;96953.34;5171608;28;20233;-76
2022/08/15 03:18:55;;;;;;;5.45;5.05;;;21.10;98.10;;;21.99;63.49;96955.94;5179888;28;20198;-76
2022/08/15 03:21:28;;;;;;;5.68;5.05;;;21.10;98.20;;;22.00;63.27;96957.66;5178820;28;20245;-76
2022/08/15 03:24:06;;;;;;;5.65;5.25;;;21.10;98.20;;;22.02;63.31;96955.06;5181470;28;20237;-76
2022/08/15 03:26:39;;;;;;;5.93;5.43;;;21.20;98.40;;;22.00;63.46;96957.66;5179906;28;20225;-76
2022/08/15 03:29:21;;;;;;;5.53;5.10;;;21.10;98.40;;;22.00;63.50;96957.66;5177320;28;20222;-76
2022/08/15 03:31:54;;;;;;;5.55;5.05;;;21.10;98.40;;;22.00;63.94;96957.66;5182018;28;20293;-76
2022/08/15 03:34:29;;;;;;;5.70;5.18;;;21.10;98.60;;;22.03;63.65;96962.88;5178783;28;20233;-75
2022/08/15 03:37:03;;;;;;;6.68;5.97;;;21.10;98.60;;;22.02;63.57;96955.91;5180025;28;20245;-76
2022/08/15 03:39:38;;;;;;;5.63;5.13;;;21.10;98.40;;;22.08;63.06;96961.97;5182261;28;20202;-76
2022/08/15 03:42:13;;;;;;;5.63;5.18;;;21.10;98.30;;;22.20;62.76;96969.78;5180450;28;20252;-76
2022/08/15 03:44:51;;;;;;;5.78;5.18;;;21.10;98.30;;;22.28;62.47;96962.81;5183247;28;20257;-76
2022/08/15 03:47:25;;;;;;;5.57;5.10;;;21.20;98.10;;;22.22;62.55;96962.84;5177407;28;20199;-76
2022/08/15 03:49:59;;;;;;;5.93;5.43;;;21.20;98.10;;;22.26;62.56;96965.44;5179581;28;20285;-76
2022/08/15 03:52:55;;;;;;;5.43;5.03;;;21.30;97.90;;;22.20;62.83;96969.78;5179880;28;20202;-76
2022/08/15 03:55:32;;;;;;;5.70;5.15;;;21.30;98.10;;;22.21;63.03;96976.75;5177659;28;20223;-75
2022/08/15 03:58:09;;;;;;;5.70;4.95;;;21.30;98.20;;;22.20;63.25;96972.38;5178835;28;20302;-76
2022/08/15 04:01:03;;;;;;;6.32;5.32;;;21.30;98.30;;;22.16;63.36;96974.09;5178271;28;20202;-76
2022/08/15 04:03:36;;;;;;;5.53;5.03;;;21.20;98.40;;;22.14;63.58;96969.78;5174450;28;20230;-76
2022/08/15 04:06:16;;;;;;;6.15;5.53;;;21.20;98.50;;;22.14;63.21;96974.97;5180009;28;20253;-76
2022/08/15 04:09:00;;;;;;;5.65;5.15;;;21.20;98.50;;;22.08;63.63;96977.59;5182169;28;20288;-76
2022/08/15 04:11:44;;;;;;;5.50;5.05;;;21.20;98.70;;;22.07;63.93;96981.09;5181262;28;20245;-76
2022/08/15 04:14:17;;;;;;;6.18;5.68;;;21.20;98.80;;;22.04;64.28;96980.22;5181415;28;20317;-75
2022/08/15 04:17:05;;;;;;;5.18;4.65;;;21.20;99.00;;;22.02;63.94;96981.94;5182281;28;20226;-76
2022/08/15 04:19:50;;;;;;;5.93;4.85;;;21.10;99.00;;;21.96;64.48;96976.75;5182617;28;20211;-76
2022/08/15 04:22:34;;;;;;;5.43;4.93;;;21.10;99.10;;;21.97;64.19;96972.41;5184666;28;20210;-76
2022/08/15 04:25:18;;;;;;;5.50;5.00;;;21.10;99.10;;;21.93;64.41;96976.75;5183585;28;20222;-76
2022/08/15 04:27:56;;;;;;;5.20;4.72;;;21.00;99.10;;;21.93;64.22;96981.13;5180818;28;20713;-76
2022/08/15 04:30:32;;;;;;;5.82;5.22;;;21.00;99.20;;;21.92;64.31;96982.84;5185712;28;20220;-76
2022/08/15 04:33:12;;;;;;;5.10;4.70;;;21.00;99.30;;;21.93;64.31;96976.75;5184455;28;20226;-76
2022/08/15 04:36:09;;;;;;;5.30;4.80;;;21.00;99.30;;;21.95;64.45;96979.38;5182099;28;20214;-76
2022/08/15 04:38:53;;;;;;;5.28;4.90;;;21.00;99.40;;;22.01;64.43;96975.03;5181589;28;20210;-76
2022/08/15 04:41:30;;;;;;;6.18;5.18;;;21.00;99.30;;;21.96;64.54;96978.50;5183173;28;20206;-77
2022/08/15 04:44:10;;;;;;;5.32;4.88;;;21.00;99.50;;;22.12;63.96;96977.59;5180445;28;21024;-76
2022/08/15 04:46:51;;;;;;;5.45;4.95;;;21.10;99.30;;;22.03;64.04;96986.31;5183724;28;20273;-77
2022/08/15 04:49:25;;;;;;;5.78;5.38;;;21.10;99.20;;;22.01;64.48;96989.78;5180457;28;20610;-77
2022/08/15 04:52:08;;;;;;;5.15;4.68;;;21.10;99.30;;;21.96;64.32;96994.13;5191544;28;20210;-77
2022/08/15 04:54:43;;;;;;;6.20;4.65;;;21.10;99.50;;;21.97;64.74;96994.09;5194096;28;20256;-78
2022/08/15 04:57:30;;;;;;;7.15;5.30;;;21.00;99.80;;;21.97;64.82;96993.22;5187900;28;20229;-75
2022/08/15 05:00:08;;;;;;;5.97;5.38;;;21.00;99.70;;;21.99;64.55;97001.91;5187328;28;20198;-76
2022/08/15 05:03:00;;;;;;;5.35;4.85;;;21.00;99.70;;;22.00;64.75;96998.44;5182275;28;20289;-76
2022/08/15 05:05:40;;;;;;;5.60;5.07;;;21.10;99.90;;;21.93;64.80;96989.78;5183247;28;20213;-75
2022/08/15 05:08:14;;;;;;;5.40;5.00;;;21.10;99.90;;;21.99;65.01;96981.09;5183799;28;20199;-76
2022/08/15 05:10:55;;;;;;;5.57;4.68;;;21.10;99.90;;;21.98;65.09;96975.03;5179830;28;20234;-76
2022/08/15 05:13:35;;;;;;;5.47;4.97;;;21.10;99.90;;;21.96;64.84;96976.75;5181612;28;20620;-74
2022/08/15 05:16:09;;;;;;;5.03;4.53;;;21.00;99.90;;;21.98;64.68;96980.22;5183143;28;20226;-75
2022/08/15 05:18:43;;;;;;;4.70;4.30;;;21.10;99.70;;;22.00;64.39;96975.88;5179772;28;20209;-75
2022/08/15 05:21:18;;;;;;;4.95;4.47;;;21.10;99.30;;;22.05;64.38;96970.66;5177393;28;20199;-75
2022/08/15 05:24:12;;;;;;;4.60;4.10;;;21.10;99.30;;;22.11;63.82;96975.84;5188211;28;20234;-76
2022/08/15 05:27:02;;;;;;;4.50;3.88;;;21.20;98.90;;;22.12;63.21;96982.81;5181786;28;20284;-77
2022/08/15 05:29:36;;;;;;;4.20;3.80;;;21.20;98.50;;;22.20;62.55;96977.59;5180923;28;20246;-77
2022/08/15 05:32:13;;;;;;;3.90;3.60;;;21.20;98.10;;;22.22;62.16;96975.84;5183182;28;20222;-76
2022/08/15 05:34:51;;;;;;;3.80;3.50;;;21.30;98.10;;;22.32;61.74;96974.97;5178927;28;20597;-75
2022/08/15 05:37:26;;;;;;;3.92;3.63;;;21.40;97.50;;;22.31;61.77;96973.22;5176247;28;20295;-75
2022/08/15 05:40:15;;;;;;;5.82;3.85;;;21.40;97.60;;;22.42;61.06;96976.66;5181379;28;20206;-75
2022/08/15 05:43:09;;;;;;;4.45;3.40;;;21.50;97.10;;;22.54;60.97;96990.50;5181180;28;20209;-75
2022/08/15 05:45:53;;;;;;;4.05;3.70;;;21.60;97.10;;;22.76;60.56;96984.31;5178758;28;20198;-76
2022/08/15 05:48:33;;;;;;;4.00;3.50;;;21.70;96.80;;;22.71;60.20;96986.94;5180450;28;20273;-75
2022/08/15 05:51:14;;;;;;;4.65;3.58;;;21.80;96.60;;;23.02;59.26;96988.53;5185641;28;20194;-76
2022/08/15 05:54:07;;;;;;;4.25;3.30;;;22.00;96.20;;;23.02;59.15;96993.75;5182106;28;20321;-75
2022/08/15 05:56:51;;;;;;;3.97;3.60;;;22.00;95.90;;;23.17;58.73;96993.66;5179415;28;20752;-75
2022/08/15 05:59:43;;;;;;;4.13;3.72;;;22.10;95.80;;;23.26;58.49;96998.78;5179992;28;20226;-75
2022/08/15 06:02:30;;;;;;;3.85;3.55;;;22.20;95.50;;;23.38;57.68;96990.91;5177952;28;20230;-76
2022/08/15 06:05:30;;;;;;;3.90;3.30;;;22.30;95.20;;;23.46;57.30;96980.38;5182640;28;20233;-75
2022/08/15 06:08:12;;;;;;;3.70;3.17;;;22.50;94.70;;;23.32;57.74;96993.56;5185277;28;20285;-76
2022/08/15 06:11:12;;;;;;;3.58;3.28;;;22.40;94.70;;;23.30;57.83;96994.44;5185427;28;20244;-75
2022/08/15 06:13:51;;;;;;;3.67;3.40;;;22.50;94.40;;;23.18;58.21;96984.97;5181579;28;20729;-75
2022/08/15 06:16:33;;;;;;;4.38;3.25;;;22.30;94.80;;;23.08;58.69;96988.50;5192517;28;20229;-75
2022/08/15 06:19:24;;;;;;;3.47;3.17;;;22.20;95.30;;;23.06;58.92;96992.84;5179807;28;20536;-75
2022/08/15 06:22:21;;;;;;;3.60;3.30;;;22.10;95.50;;;22.96;59.34;96994.66;5187860;28;20304;-76
2022/08/15 06:25:16;;;;;;;3.25;2.92;;;22.10;95.60;;;23.00;59.25;96991.16;5181997;28;20279;-75
2022/08/15 06:28:08;;;;;;;3.53;3.22;;;22.20;95.50;;;22.92;59.59;96983.38;5181607;28;20287;-75
2022/08/15 06:31:09;;;;;;;3.65;3.35;;;22.10;95.70;;;22.93;60.01;96979.88;5184612;28;20213;-75
2022/08/15 06:33:54;;;;;;;3.38;3.00;;;22.10;95.90;;;23.01;59.70;96987.69;5177248;28;20306;-75
2022/08/15 06:36:38;;;;;;;4.22;3.33;;;22.20;95.70;;;23.24;58.86;96984.91;5179988;28;20202;-77
2022/08/15 06:39:22;;;;;;;3.35;3.08;;;22.40;95.30;;;23.38;58.22;96987.44;5181926;28;20226;-76
2022/08/15 06:42:04;;;;;;;3.40;2.92;;;22.50;95.00;;;23.34;58.29;96986.56;5185624;28;20195;-76
2022/08/15 06:44:43;;;;;;;3.03;2.83;;;22.50;94.90;;;23.31;58.58;96985.72;5175915;28;20226;-75
2022/08/15 06:47:18;;;;;;;3.47;3.20;;;22.40;95.20;;;23.48;58.12;96981.25;5184592;28;20202;-76
2022/08/15 06:50:00;;;;;;;5.55;3.60;;;22.60;94.80;;;23.38;58.68;96977.00;5165493;28;20855;-77
2022/08/15 06:52:35;;;;;;;3.58;3.22;;;22.50;95.20;;;23.53;57.76;96973.41;5163075;28;20206;-74
2022/08/15 06:55:09;;;;;;;3.58;3.28;;;22.60;94.80;;;23.61;57.43;96980.28;5171641;28;20326;-74
2022/08/15 06:57:55;;;;;;;3.95;3.00;;;22.60;94.50;;;23.93;56.24;96986.13;5183215;28;20324;-76
2022/08/15 07:00:41;;;;;;;3.25;3.00;;;23.00;93.60;;;24.28;54.48;96993.56;5183287;28;20594;-76
2022/08/15 07:03:40;;;;;;;3.72;2.80;;;23.40;92.50;;;24.34;54.35;96988.25;5176353;28;20342;-77
2022/08/15 07:06:24;;;;;;;3.40;3.10;;;23.50;92.00;;;24.46;54.32;96988.16;5180800;28;20213;-74
2022/08/15 07:09:14;;;;;;;4.05;3.13;;;23.50;91.90;;;24.52;53.58;96994.19;5182244;28;20202;-77
2022/08/15 07:11:54;;;;;;;3.05;2.80;;;23.60;91.70;;;24.82;52.40;96995.56;5177862;28;20205;-77
2022/08/15 07:14:47;;;;;;;3.42;2.38;;;23.90;90.70;;;24.83;51.87;97003.38;5176312;28;20627;-76
2022/08/15 07:17:29;;;;;;;2.60;2.40;;;23.90;90.40;;;25.06;51.13;96994.34;5177545;28;20277;-76
2022/08/15 07:20:06;;;;;;;4.47;2.90;;;24.00;89.30;;;25.43;50.51;97002.53;5177606;28;20233;-76
2022/08/15 07:23:16;;;;;;;4.00;3.00;;;24.40;88.70;;;26.05;48.71;97011.13;5179667;28;20815;-76
2022/08/15 07:25:54;;;;;;;3.58;2.83;;;25.00;86.10;;;26.22;48.32;97007.34;5178300;28;20261;-76
2022/08/15 07:28:30;;;;;;;2.83;2.60;;;25.30;85.10;;;26.08;48.26;97006.72;5180155;28;20265;-76
2022/08/15 07:31:12;;;;;;;3.08;2.80;;;24.90;85.60;;;25.74;48.49;97004.66;5180979;28;20210;-77
2022/08/15 07:33:50;;;;;;;2.85;2.50;;;24.50;86.30;;;25.39;49.80;97009.56;5178582;28;20226;-76
2022/08/15 07:36:33;;;;;;;5.30;2.55;;;24.10;88.20;;;25.33;50.28;97014.03;5173708;28;20682;-76
2022/08/15 07:39:29;;;;;;;3.47;2.33;;;24.00;88.60;;;25.41;48.71;97012.19;5178470;28;22002;-75
2022/08/15 07:42:18;;;;;;;2.78;2.50;;;24.20;86.40;;;25.38;49.33;97017.44;5179160;28;20228;-77
2022/08/15 07:45:17;;;;;;;2.85;2.60;;;24.10;86.80;;;25.35;49.10;97022.72;5177946;28;20227;-76
2022/08/15 07:48:01;;;;;;;3.65;2.58;;;24.10;87.10;;;25.44;49.20;97016.47;5180977;28;20209;-78
2022/08/15 07:50:42;;;;;;;3.22;2.53;;;24.30;86.50;;;25.49;48.71;97005.03;5183907;28;20214;-76
2022/08/15 07:53:21;;;;;;;3.08;2.58;;;24.40;85.60;;;25.67;48.75;97011.75;5181234;28;20697;-75
2022/08/15 07:56:09;;;;;;;3.15;2.80;;;24.70;85.20;;;25.99;48.36;97013.84;5182206;28;20221;-76
2022/08/15 07:59:13;;;;;;;3.55;2.65;;;25.00;84.40;;;26.57;46.71;97011.06;5181061;28;20222;-76
2022/08/15 08:02:09;;;;;;;2.83;2.63;;;25.70;82.60;;;27.24;44.71;97012.22;5180598;28;20311;-76
2022/08/15 08:05:02;;;;;;;2.90;2.58;;;26.60;78.10;;;27.85;43.01;97012.56;5181535;28;21108;-77
2022/08/15 08:07:40;;;;;;;2.70;2.50;;;27.30;75.90;;;28.41;42.04;97018.06;5185994;28;20645;-79
2022/08/15 08:10:23;;;;;;;2.45;2.35;;;27.90;74.70;;;28.82;40.55;97004.72;5181677;28;20206;-77
2022/08/15 08:13:35;;;;;;;2.45;2.13;;;28.20;72.30;;;28.46;41.02;97015.34;5185556;28;20767;-77
2022/08/15 08:16:20;;;;;;;3.03;2.50;;;27.50;72.80;;;28.11;41.03;97016.28;5183873;28;20378;-77
2022/08/15 08:19:13;;;;;;;4.10;2.47;;;27.30;73.60;;;27.57;42.51;97022.84;5185064;28;20223;-77
2022/08/15 08:21:55;;;;;;;2.40;2.20;;;26.50;75.50;;;27.28;42.93;97019.16;5178906;28;20587;-77
2022/08/15 08:24:45;;;;;;;3.25;2.20;;;26.10;76.60;;;26.95;44.21;97018.97;5182376;28;20225;-77
2022/08/15 08:27:34;;;;;;;4.53;2.70;;;25.70;78.00;;;26.77;45.16;97026.38;5183173;28;20197;-77
2022/08/15 08:30:12;;;;;;;3.55;2.47;;;25.90;78.40;;;26.58;45.71;97020.63;5181141;28;20688;-77
2022/08/15 08:33:18;;;;;;;2.40;2.20;;;25.60;79.30;;;26.59;45.48;97010.13;5183321;28;20234;-76
2022/08/15 08:35:57;;;;;;;2.65;2.45;;;25.80;78.80;;;26.92;44.52;97012.94;5175131;28;20289;-76
2022/08/15 08:38:37;;;;;;;3.45;2.60;;;26.20;77.50;;;27.03;44.47;97012.69;5182840;28;20253;-76
2022/08/15 08:41:42;;;;;;;2.78;2.50;;;26.50;76.90;;;27.53;43.55;97014.19;5180480;28;20670;-76
2022/08/15 08:44:29;;;;;;;3.28;2.42;;;27.20;75.20;;;28.00;42.29;97024.44;5181609;28;20324;-75
2022/08/15 08:47:32;;;;;;;2.90;2.42;;;27.70;73.30;;;28.25;40.86;97008.91;5183470;28;20653;-77
2022/08/15 08:50:29;;;;;;;2.42;2.22;;;27.90;71.60;;;28.60;40.66;97009.72;5188499;28;20220;-77
2022/08/15 08:53:21;;;;;;;2.45;2.13;;;28.20;71.60;;;28.85;39.54;97010.75;5190546;28;20241;-77
2022/08/15 08:56:14;;;;;;;2.33;2.13;;;28.60;70.00;;;29.20;39.12;97011.47;5189022;28;20214;-77
2022/08/15 08:59:17;;;;;;;2.53;2.33;;;28.80;69.10;;;28.94;39.00;97007.81;5189840;28;20222;-76
2022/08/15 09:01:59;;;;;;;3.05;2.85;;;28.10;70.00;;;28.78;39.29;97016.22;5187623;28;20233;-76
2022/08/15 09:04:44;;;;;;;2.45;2.25;;;27.60;71.20;;;28.26;40.47;97019.34;5184630;28;20226;-77
2022/08/15 09:07:28;;;;;;;2.42;2.17;;;27.20;72.30;;;27.99;40.89;97012.22;5190817;28;20236;-76
2022/08/15 09:10:08;;;;;;;2.17;2.08;;;27.00;72.30;;;28.09;39.68;97008.44;5185520;28;20334;-77
2022/08/15 09:15:43;;;;;;;2.33;2.20;;;27.70;69.70;;;28.57;39.59;97010.66;5191021;28;20206;-77
2022/08/15 09:18:31;;;;;;;2.55;2.35;;;28.10;69.40;;;28.78;39.28;97013.56;5183083;28;20214;-76
2022/08/15 09:21:06;;;;;;;2.72;2.20;;;28.20;69.00;;;29.02;38.23;97009.38;5183454;28;20651;-76
2022/08/15 09:23:44;;;;;;;2.47;2.20;;;28.50;67.10;;;28.92;37.72;97016.66;5185910;28;20243;-76
2022/08/15 09:26:28;;;;;;;2.50;2.30;;;28.10;67.60;;;29.07;38.24;97007.47;5179690;28;20222;-77
2022/08/15 09:29:09;;;;;;;2.10;1.90;;;28.50;67.70;;;29.28;37.78;97013.88;5186778;28;20214;-78
2022/08/15 09:32:14;;;;;;;2.90;2.47;;;28.80;67.20;;;29.54;37.36;97016.53;5185351;28;20209;-77
2022/08/15 09:35:22;;;;;;;2.20;2.00;;;29.10;66.80;;;29.52;37.81;97013.06;5185635;28;20296;-77
2022/08/15 09:38:37;;;;;;;2.15;1.95;;;29.10;66.30;;;29.65;37.25;97003.06;5179569;28;20198;-77
2022/08/15 09:41:51;;;;;;;2.85;2.13;;;29.10;66.90;;;29.71;37.58;97007.25;5180953;28;20202;-78
2022/08/15 09:44:50;;;;;;;2.20;2.03;;;29.10;66.20;;;29.81;37.05;97006.88;5186114;28;20308;-77
2022/08/15 09:48:26;;;;;;;2.20;2.03;;;29.30;66.00;;;29.97;37.05;96999.31;5179184;28;20201;-76
2022/08/15 09:51:43;;;;;;;2.20;2.00;;;29.50;66.00;;;29.75;37.11;96998.31;5180202;28;20210;-76
2022/08/15 09:54:25;;;;;;;2.35;2.15;;;28.80;67.00;;;29.65;36.98;96995.16;5172173;28;20232;-77
2022/08/15 09:57:34;;;;;;;2.30;2.10;;;28.70;66.70;;;29.69;37.44;96993.28;5183000;28;20199;-78
2022/08/15 10:00:28;;;;;;;2.17;1.98;;;28.80;67.00;;;29.68;36.71;96996.81;5186298;28;20280;-75
2022/08/15 10:03:18;;;;;;;2.15;1.95;;;28.80;66.50;;;29.78;36.66;97000.84;5182832;28;20739;-76
2022/08/15 10:06:04;;;;;;;2.20;1.90;;;29.00;65.80;;;29.65;36.67;96997.78;5180964;28;20203;-78
2022/08/15 10:09:34;;;;;;;2.03;1.90;;;28.70;66.80;;;29.25;38.07;96993.75;5183663;28;20639;-77
2022/08/15 10:12:25;;;;;;;2.30;2.20;;;28.00;68.70;;;29.30;37.78;96990.97;5182784;28;20193;-77
2022/08/15 10:15:03;;;;;;;2.35;1.95;;;28.20;68.60;;;29.30;37.75;96993.59;5181097;28;20225;-77
2022/08/15 10:17:45;;;;;;;2.78;2.13;;;28.30;68.10;;;29.54;37.88;96995.47;5190478;28;20213;-78
2022/08/15 10:20:59;;;;;;;2.72;2.40;;;28.70;67.20;;;29.40;37.20;96997.69;5188602;28;20343;-78
2022/08/15 10:23:45;;;;;;;2.28;2.17;;;28.60;66.80;;;29.32;37.54;96990.00;5181277;28;20256;-77
2022/08/15 10:26:37;;;;;;;1.98;1.88;;;28.50;67.00;;;29.50;37.28;96983.28;5176936;28;20201;-78
2022/08/15 10:29:29;;;;;;;2.30;2.20;;;28.70;67.00;;;29.40;37.11;96989.78;5179181;28;20202;-78
2022/08/15 10:32:25;;;;;;;2.90;2.08;;;28.60;66.70;;;29.66;37.59;96988.09;5183136;28;20206;-77
2022/08/15 10:35:29;;;;;;;2.30;2.20;;;28.80;66.60;;;29.66;36.82;96981.06;5178316;28;20244;-76
2022/08/15 10:38:07;;;;;;;2.35;2.25;;;28.80;66.40;;;29.69;36.97;96980.09;5181798;28;20711;-78
2022/08/15 10:41:16;;;;;;;2.53;1.90;;;28.70;67.10;;;29.54;36.88;96981.44;5184835;28;20660;-77
2022/08/15 10:44:07;;;;;;;2.17;1.98;;;28.80;65.50;;;29.33;37.74;96967.16;5183258;28;20269;-78
2022/08/15 10:47:15;;;;;;;2.38;2.17;;;28.40;66.80;;;29.15;38.03;96966.84;5182222;28;20236;-76
2022/08/15 10:50:07;;;;;;;2.30;2.10;;;28.20;67.20;;;29.41;37.06;96970.41;5181693;28;20199;-77
2022/08/15 10:53:00;;;;;;;2.28;2.08;;;28.60;66.40;;;29.39;37.17;96967.00;5181792;28;20748;-78
2022/08/15 10:55:34;;;;;;;2.25;2.15;;;28.70;66.10;;;29.33;37.45;96956.63;5179879;28;20651;-77
2022/08/15 10:58:32;;;;;;;2.28;2.08;;;28.60;66.10;;;29.47;37.44;96950.94;5185782;28;20197;-77
2022/08/15 11:01:13;;;;;;;2.28;2.00;;;28.70;66.00;;;29.57;36.64;96955.84;5179195;28;20212;-76
2022/08/15 11:03:55;;;;;;;2.33;2.13;;;28.80;65.60;;;29.71;36.54;96951.94;5181839;28;20222;-75
2022/08/15 11:06:50;;;;;;;2.10;1.85;;;29.00;65.30;;;29.59;36.48;96946.13;5187015;28;20202;-76
2022/08/15 11:09:28;;;;;;;2.00;1.90;;;28.80;65.40;;;29.77;36.05;96949.09;5184095;28;20582;-77
2022/08/15 11:12:07;;;;;;;2.30;2.13;;;29.00;64.90;;;29.73;36.30;96950.09;5176521;28;20264;-77
2022/08/15 11:14:54;;;;;;;2.35;2.25;;;29.00;64.60;;;29.64;35.44;96938.94;5181819;28;20217;-76
2022/08/15 11:17:33;;;;;;;2.45;2.22;;;28.90;64.20;;;29.68;36.01;96952.03;5184844;28;20221;-77
2022/08/15 11:20:24;;;;;;;2.55;2.08;;;28.90;64.10;;;29.56;35.40;96951.50;5182391;28;20272;-76
2022/08/15 11:23:00;;;;;;;2.45;2.25;;;28.80;63.60;;;29.59;35.59;96951.41;5187606;28;20322;-78
2022/08/15 11:25:39;;;;;;;2.25;2.00;;;28.80;63.60;;;29.49;35.25;96949.97;5191022;28;20290;-77
2022/08/15 11:28:21;;;;;;;2.40;2.20;;;28.70;63.40;;;29.37;35.03;96955.66;5192891;28;20272;-78
2022/08/15 11:31:20;;;;;;;2.03;1.92;;;28.40;63.30;;;29.35;35.59;96945.16;5185060;28;20205;-78
2022/08/15 11:33:54;;;;;;;2.40;2.20;;;28.50;63.20;;;29.14;35.70;96937.97;5184469;28;20288;-77
2022/08/15 11:36:29;;;;;;;2.30;2.20;;;28.40;64.00;;;29.25;35.62;96935.84;5188517;28;20205;-78
2022/08/15 11:39:13;;;;;;;2.22;2.03;;;28.60;63.70;;;29.04;35.96;96936.50;5188298;28;20671;-76
2022/08/15 11:41:57;;;;;;;1.92;1.83;;;28.30;64.00;;;29.11;36.84;96930.16;5188540;28;20207;-76